Manila Express — VRCX7 — position and weather

sailwx.info

Track history (hours):
 
Tides and Currents Weather Stations Pressure Air Temp Water Temp Dewpoint Dewpoint Depression Visibility Wind Speed Wind Dir Waves Ship Positions

Manila Express

Last reported at 2016-Apr-30 10:26 UTC. Time now 2016-Apr-30 11:17 UTC.
Position N 31°28' E 031°46'.

Length 260 m; draft 11.7 m.

Type: Ship (hazmat cat A). MMSI: 477830800.

Date/timePositionNaut miles runAvg speedWind from/ knotsBaromVisibWave heightAir tempDewpointWater temp
2016-Apr-30 10:26N 31°28' E 031°46'1 0.5
2016-Apr-30 08:15N 31°29' E 031°45'6 8.6
2016-Apr-30 07:34N 31°34' E 031°47'6 5.5
2016-Apr-30 06:33N 31°40' E 031°46'1413.7
2016-Apr-30 05:33N 31°50' E 031°35'1717.3
2016-Apr-30 04:33N 31°57' E 031°16'1817.6
2016-Apr-30 03:31N 32°05' E 030°57'1717.2
2016-Apr-30 02:33N 32°11' E 030°39'1717.0
2016-Apr-30 01:32N 32°18' E 030°20'1717.0
2016-Apr-30 00:33N 32°25' E 030°02'1717.1
2016-Apr-29 23:32N 32°32' E 029°43'1717.5
2016-Apr-29 22:33N 32°39' E 029°25'1817.6
2016-Apr-29 21:33N 32°46' E 029°05'1817.8
2016-Apr-29 20:33N 32°53' E 028°46'1818.1
2016-Apr-29 19:33N 33°01' E 028°26'3824.8
2016-Apr-29 18:00N 33°12' E 027°42'24418.1 110 / 221023.0 5.4 2.520.315.1
2016-Apr-29 04:28N 34°57' E 023°16'1718.6
2016-Apr-29 03:33N 35°05' E 022°57'1918.7
2016-Apr-29 02:32N 35°13' E 022°36'11618.7
2016-Apr-28 20:20N 36°03' E 020°27'1418.8
2016-Apr-28 19:33N 36°09' E 020°11'1919.0
2016-Apr-28 18:33N 36°17' E 019°50'2238.6
2016-Apr-28 18:00N 36°24' E 019°24'4 8.2 140 / 111024.6 5.4 2.520.111.2
2016-Apr-28 17:33N 36°26' E 019°28'2219.5
2016-Apr-28 16:25N 36°36' E 019°03'1819.3
2016-Apr-28 15:30N 36°43' E 018°44'13319.0
2016-Apr-28 08:31N 37°40' E 016°13'1919.2
2016-Apr-28 07:33N 37°47' E 015°52'1818.4
2016-Apr-28 06:33N 37°58' E 015°33'1615.9
2016-Apr-28 05:34N 38°14' E 015°36'8 8.4
2016-Apr-28 04:33N 38°22' E 015°36'1716.7
2016-Apr-28 03:33N 38°34' E 015°21'2019.4
2016-Apr-28 02:32N 38°48' E 015°03'14519.5
2016-Apr-27 19:05N 40°24' E 012°41'2523.0
2016-Apr-27 18:00N 40°36' E 012°12'16118.9 190 / 221022.5 5.4 2.518.212.7
2016-Apr-27 09:29N 42°36' E 009°49'2520.3
2016-Apr-27 08:15N 43°00' E 009°39'1419.7
2016-Apr-27 07:33N 43°13' E 009°34'1918.8
2016-Apr-27 06:33N 43°31' E 009°25'1919.2
2016-Apr-27 05:33N 43°49' E 009°15'1919.4
2016-Apr-27 04:33N 44°07' E 009°05'1716.5
2016-Apr-27 03:33N 44°22' E 008°57'3 2.9
2016-Apr-27 02:32N 44°24' E 008°54'0 0.0
2016-Apr-27 01:32N 44°24' E 008°54'0 0.0
2016-Apr-27 00:32N 44°24' E 008°54'0 0.0
2016-Apr-26 23:32N 44°24' E 008°54'0 0.0
2016-Apr-26 22:31N 44°24' E 008°54'0 0.0
2016-Apr-26 21:31N 44°24' E 008°54'0 0.0
2016-Apr-26 20:31N 44°24' E 008°54'0 0.0
2016-Apr-26 19:31N 44°24' E 008°54'0 0.0
2016-Apr-26 18:31N 44°24' E 008°54'0 0.0
2016-Apr-26 17:31N 44°24' E 008°54'0 0.0
2016-Apr-26 16:31N 44°24' E 008°54'0 0.0
2016-Apr-26 15:28N 44°24' E 008°54'0 0.0
2016-Apr-26 14:31N 44°24' E 008°54'0 0.0
2016-Apr-26 13:31N 44°24' E 008°54'0 0.3
2016-Apr-26 12:33N 44°24' E 008°54'5 5.3
2016-Apr-26 11:33N 44°20' E 008°59'10 9.8
2016-Apr-26 10:34N 44°13' E 008°49'1515.1
2016-Apr-26 09:34N 44°03' E 008°33'4414.6
2016-Apr-26 06:33N 43°35' E 007°46'1323.6
2016-Apr-26 06:00N 43°24' E 007°36'710.0 260 / 181015.410.8 1.012.0 5.613.7
2016-Apr-26 05:17N 43°22' E 007°27'1215.0
2016-Apr-26 04:30N 43°14' E 007°15'9212.6
2016-Apr-25 21:11N 43°05' E 005°09'1015.6
2016-Apr-25 20:33N 43°13' E 005°01'1212.4
2016-Apr-25 19:33N 43°24' E 004°53'2 1.9
2016-Apr-25 18:29N 43°25' E 004°51'0 0.0
2016-Apr-25 17:29N 43°25' E 004°51'0 0.0
2016-Apr-25 16:29N 43°25' E 004°51'0 0.0
2016-Apr-25 15:29N 43°25' E 004°51'0 0.0
2016-Apr-25 14:23N 43°25' E 004°51'0 0.0
2016-Apr-25 13:29N 43°25' E 004°51'0 0.0
2016-Apr-25 12:23N 43°25' E 004°51'0 0.0
2016-Apr-25 11:32N 43°25' E 004°51'0 0.0
2016-Apr-25 10:26N 43°25' E 004°51'0 0.0
2016-Apr-25 09:20N 43°25' E 004°51'0 0.0
2016-Apr-25 08:20N 43°25' E 004°51'0 0.0
2016-Apr-25 07:26N 43°25' E 004°51'0 0.0
2016-Apr-25 06:32N 43°25' E 004°51'0 0.0
2016-Apr-25 05:22N 43°25' E 004°51'0 0.0
2016-Apr-25 04:31N 43°25' E 004°51'1 0.6
2016-Apr-25 03:33N 43°24' E 004°52'8 8.1
2016-Apr-25 02:33N 43°19' E 004°59'1313.2
2016-Apr-25 01:33N 43°06' E 004°57'13017.2
2016-Apr-24 18:00N 41°18' E 003°18'2013.8 090 / 221025.4 5.4 4.020.2-3.0
2016-Apr-24 16:33N 40°60' E 003°08'1918.9
2016-Apr-24 15:33N 40°44' E 002°54'1919.3
2016-Apr-24 14:33N 40°28' E 002°40'1919.1
2016-Apr-24 13:33N 40°12' E 002°26'1919.4
2016-Apr-24 12:33N 39°57' E 002°10'1919.2
2016-Apr-24 11:33N 39°44' E 001°52'2119.0
2016-Apr-24 10:26N 39°30' E 001°31'12227.5
2016-Apr-24 06:00N 38°12' W 000°30'4317.4 350 / 151020.410.8 1.516.512.915.2
2016-Apr-24 03:33N 37°37' E 000°00'2219.3
2016-Apr-24 02:23N 37°18' W 000°14'1719.3
2016-Apr-24 01:29N 37°06' W 000°30'1819.4
2016-Apr-24 00:33N 36°57' W 000°50'2319.8
2016-Apr-23 23:22N 36°46' W 001°16'10018.5
2016-Apr-23 18:00N 36°12' W 003°12'9620.8 260 / 201024.610.8 0.520.216.8
2016-Apr-23 13:22N 36°01' W 005°10'1518.3
2016-Apr-23 12:33N 35°57' W 005°28'11918.2
2016-Apr-23 06:00N 36°12' W 007°54'10918.1 340 / 41024.410.8 16.014.314.8
2016-Apr-23 00:00N 37°18' W 009°42'3120.9 120 / 141025.5 2.2 1.015.013.216.0
2016-Apr-22 22:31N 37°48' W 009°52'1919.2
2016-Apr-22 21:33N 38°06' W 009°57'1919.4
2016-Apr-22 20:33N 38°25' W 010°03'1919.4
2016-Apr-22 19:33N 38°44' W 010°05'2019.8
2016-Apr-22 18:33N 39°04' W 010°05'2019.7
2016-Apr-22 17:32N 39°24' W 010°05'22219.3
2016-Apr-22 06:00N 43°06' W 010°06'37520.2 180 / 101026.5 5.4 1.514.511.714.2
2016-Apr-21 11:28N 48°40' W 006°01'1718.3
2016-Apr-21 10:33N 48°54' W 005°47'1616.4
2016-Apr-21 09:33N 49°02' W 005°26'5819.4
2016-Apr-21 06:33N 49°32' W 004°09'3819.0
2016-Apr-21 04:34N 49°50' W 003°17'2019.5
2016-Apr-21 03:33N 49°58' W 002°50'2020.4
2016-Apr-21 02:33N 50°04' W 002°19'2121.4
2016-Apr-21 01:33N 49°58' W 001°47'2222.7
2016-Apr-21 00:34N 49°50' W 001°15'2221.8
2016-Apr-20 23:34N 49°42' W 000°43'2019.7
2016-Apr-20 22:33N 49°34' W 000°15'1313.2
2016-Apr-20 21:33N 49°29' E 000°04'4 3.6
2016-Apr-20 20:32N 49°28' E 000°09'0 0.0
2016-Apr-20 19:32N 49°28' E 000°09'0 0.0
2016-Apr-20 18:32N 49°28' E 000°09'0 0.0
2016-Apr-20 17:32N 49°28' E 000°09'0 0.0
2016-Apr-20 16:32N 49°28' E 000°09'0 0.0
2016-Apr-20 15:32N 49°28' E 000°09'0 0.0
2016-Apr-20 14:32N 49°28' E 000°09'0 0.0
2016-Apr-20 13:32N 49°28' E 000°09'0 0.0
2016-Apr-20 12:32N 49°28' E 000°09'0 0.0
2016-Apr-20 11:32N 49°28' E 000°09'0 0.0
2016-Apr-20 10:32N 49°28' E 000°09'  
Track history (hours):
 
Tides and Currents Weather Stations Pressure Air Temp Water Temp Dewpoint Dewpoint Depression Visibility Wind Speed Wind Dir Waves Ship Positions

Manila Express

Last reported at 2016-Apr-30 10:26 UTC. Time now 2016-Apr-30 11:17 UTC.
Position N 31°28' E 031°46'.

Length 260 m; draft 11.7 m.

Type: Ship (hazmat cat A). MMSI: 477830800.

Date/timePositionNaut miles runAvg speedWind from/ knotsBaromVisibWave heightAir tempDewpointWater temp
2016-Apr-30 10:26N 31°28' E 031°46'1 0.5
2016-Apr-30 08:15N 31°29' E 031°45'6 8.6
2016-Apr-30 07:34N 31°34' E 031°47'6 5.5
2016-Apr-30 06:33N 31°40' E 031°46'1413.7
2016-Apr-30 05:33N 31°50' E 031°35'1717.3
2016-Apr-30 04:33N 31°57' E 031°16'1817.6
2016-Apr-30 03:31N 32°05' E 030°57'1717.2
2016-Apr-30 02:33N 32°11' E 030°39'1717.0
2016-Apr-30 01:32N 32°18' E 030°20'1717.0
2016-Apr-30 00:33N 32°25' E 030°02'1717.1
2016-Apr-29 23:32N 32°32' E 029°43'1717.5
2016-Apr-29 22:33N 32°39' E 029°25'1817.6
2016-Apr-29 21:33N 32°46' E 029°05'1817.8
2016-Apr-29 20:33N 32°53' E 028°46'1818.1
2016-Apr-29 19:33N 33°01' E 028°26'3824.8
2016-Apr-29 18:00N 33°12' E 027°42'24418.1 110 / 221023.0 5.4 2.520.315.1
2016-Apr-29 04:28N 34°57' E 023°16'1718.6
2016-Apr-29 03:33N 35°05' E 022°57'1918.7
2016-Apr-29 02:32N 35°13' E 022°36'11618.7
2016-Apr-28 20:20N 36°03' E 020°27'1418.8
2016-Apr-28 19:33N 36°09' E 020°11'1919.0
2016-Apr-28 18:33N 36°17' E 019°50'2238.6
2016-Apr-28 18:00N 36°24' E 019°24'4 8.2 140 / 111024.6 5.4 2.520.111.2
2016-Apr-28 17:33N 36°26' E 019°28'2219.5
2016-Apr-28 16:25N 36°36' E 019°03'1819.3
2016-Apr-28 15:30N 36°43' E 018°44'13319.0
2016-Apr-28 08:31N 37°40' E 016°13'1919.2
2016-Apr-28 07:33N 37°47' E 015°52'1818.4
2016-Apr-28 06:33N 37°58' E 015°33'1615.9
2016-Apr-28 05:34N 38°14' E 015°36'8 8.4
2016-Apr-28 04:33N 38°22' E 015°36'1716.7
2016-Apr-28 03:33N 38°34' E 015°21'2019.4
2016-Apr-28 02:32N 38°48' E 015°03'14519.5
2016-Apr-27 19:05N 40°24' E 012°41'2523.0
2016-Apr-27 18:00N 40°36' E 012°12'16118.9 190 / 221022.5 5.4 2.518.212.7
2016-Apr-27 09:29N 42°36' E 009°49'2520.3
2016-Apr-27 08:15N 43°00' E 009°39'1419.7
2016-Apr-27 07:33N 43°13' E 009°34'1918.8
2016-Apr-27 06:33N 43°31' E 009°25'1919.2
2016-Apr-27 05:33N 43°49' E 009°15'1919.4
2016-Apr-27 04:33N 44°07' E 009°05'1716.5
2016-Apr-27 03:33N 44°22' E 008°57'3 2.9
2016-Apr-27 02:32N 44°24' E 008°54'0 0.0
2016-Apr-27 01:32N 44°24' E 008°54'0 0.0
2016-Apr-27 00:32N 44°24' E 008°54'0 0.0
2016-Apr-26 23:32N 44°24' E 008°54'0 0.0
2016-Apr-26 22:31N 44°24' E 008°54'0 0.0
2016-Apr-26 21:31N 44°24' E 008°54'0 0.0
2016-Apr-26 20:31N 44°24' E 008°54'0 0.0
2016-Apr-26 19:31N 44°24' E 008°54'0 0.0
2016-Apr-26 18:31N 44°24' E 008°54'0 0.0
2016-Apr-26 17:31N 44°24' E 008°54'0 0.0
2016-Apr-26 16:31N 44°24' E 008°54'0 0.0
2016-Apr-26 15:28N 44°24' E 008°54'0 0.0
2016-Apr-26 14:31N 44°24' E 008°54'0 0.0
2016-Apr-26 13:31N 44°24' E 008°54'0 0.3
2016-Apr-26 12:33N 44°24' E 008°54'5 5.3
2016-Apr-26 11:33N 44°20' E 008°59'10 9.8
2016-Apr-26 10:34N 44°13' E 008°49'1515.1
2016-Apr-26 09:34N 44°03' E 008°33'4414.6
2016-Apr-26 06:33N 43°35' E 007°46'1323.6
2016-Apr-26 06:00N 43°24' E 007°36'710.0 260 / 181015.410.8 1.012.0 5.613.7
2016-Apr-26 05:17N 43°22' E 007°27'1215.0
2016-Apr-26 04:30N 43°14' E 007°15'9212.6
2016-Apr-25 21:11N 43°05' E 005°09'1015.6
2016-Apr-25 20:33N 43°13' E 005°01'1212.4
2016-Apr-25 19:33N 43°24' E 004°53'2 1.9
2016-Apr-25 18:29N 43°25' E 004°51'0 0.0
2016-Apr-25 17:29N 43°25' E 004°51'0 0.0
2016-Apr-25 16:29N 43°25' E 004°51'0 0.0
2016-Apr-25 15:29N 43°25' E 004°51'0 0.0
2016-Apr-25 14:23N 43°25' E 004°51'0 0.0
2016-Apr-25 13:29N 43°25' E 004°51'0 0.0
2016-Apr-25 12:23N 43°25' E 004°51'0 0.0
2016-Apr-25 11:32N 43°25' E 004°51'0 0.0
2016-Apr-25 10:26N 43°25' E 004°51'0 0.0
2016-Apr-25 09:20N 43°25' E 004°51'0 0.0
2016-Apr-25 08:20N 43°25' E 004°51'0 0.0
2016-Apr-25 07:26N 43°25' E 004°51'0 0.0
2016-Apr-25 06:32N 43°25' E 004°51'0 0.0
2016-Apr-25 05:22N 43°25' E 004°51'0 0.0
2016-Apr-25 04:31N 43°25' E 004°51'1 0.6
2016-Apr-25 03:33N 43°24' E 004°52'8 8.1
2016-Apr-25 02:33N 43°19' E 004°59'1313.2
2016-Apr-25 01:33N 43°06' E 004°57'13017.2
2016-Apr-24 18:00N 41°18' E 003°18'2013.8 090 / 221025.4 5.4 4.020.2-3.0
2016-Apr-24 16:33N 40°60' E 003°08'1918.9
2016-Apr-24 15:33N 40°44' E 002°54'1919.3
2016-Apr-24 14:33N 40°28' E 002°40'1919.1
2016-Apr-24 13:33N 40°12' E 002°26'1919.4
2016-Apr-24 12:33N 39°57' E 002°10'1919.2
2016-Apr-24 11:33N 39°44' E 001°52'2119.0
2016-Apr-24 10:26N 39°30' E 001°31'12227.5
2016-Apr-24 06:00N 38°12' W 000°30'4317.4 350 / 151020.410.8 1.516.512.915.2
2016-Apr-24 03:33N 37°37' E 000°00'2219.3
2016-Apr-24 02:23N 37°18' W 000°14'1719.3
2016-Apr-24 01:29N 37°06' W 000°30'1819.4
2016-Apr-24 00:33N 36°57' W 000°50'2319.8
2016-Apr-23 23:22N 36°46' W 001°16'10018.5
2016-Apr-23 18:00N 36°12' W 003°12'9620.8 260 / 201024.610.8 0.520.216.8
2016-Apr-23 13:22N 36°01' W 005°10'1518.3
2016-Apr-23 12:33N 35°57' W 005°28'11918.2
2016-Apr-23 06:00N 36°12' W 007°54'10918.1 340 / 41024.410.8 16.014.314.8
2016-Apr-23 00:00N 37°18' W 009°42'3120.9 120 / 141025.5 2.2 1.015.013.216.0
2016-Apr-22 22:31N 37°48' W 009°52'1919.2
2016-Apr-22 21:33N 38°06' W 009°57'1919.4
2016-Apr-22 20:33N 38°25' W 010°03'1919.4
2016-Apr-22 19:33N 38°44' W 010°05'2019.8
2016-Apr-22 18:33N 39°04' W 010°05'2019.7
2016-Apr-22 17:32N 39°24' W 010°05'22219.3
2016-Apr-22 06:00N 43°06' W 010°06'37520.2 180 / 101026.5 5.4 1.514.511.714.2
2016-Apr-21 11:28N 48°40' W 006°01'1718.3
2016-Apr-21 10:33N 48°54' W 005°47'1616.4
2016-Apr-21 09:33N 49°02' W 005°26'5819.4
2016-Apr-21 06:33N 49°32' W 004°09'3819.0
2016-Apr-21 04:34N 49°50' W 003°17'2019.5
2016-Apr-21 03:33N 49°58' W 002°50'2020.4
2016-Apr-21 02:33N 50°04' W 002°19'2121.4
2016-Apr-21 01:33N 49°58' W 001°47'2222.7
2016-Apr-21 00:34N 49°50' W 001°15'2221.8
2016-Apr-20 23:34N 49°42' W 000°43'2019.7
2016-Apr-20 22:33N 49°34' W 000°15'1313.2
2016-Apr-20 21:33N 49°29' E 000°04'4 3.6
2016-Apr-20 20:32N 49°28' E 000°09'0 0.0
2016-Apr-20 19:32N 49°28' E 000°09'0 0.0
2016-Apr-20 18:32N 49°28' E 000°09'0 0.0
2016-Apr-20 17:32N 49°28' E 000°09'0 0.0
2016-Apr-20 16:32N 49°28' E 000°09'0 0.0
2016-Apr-20 15:32N 49°28' E 000°09'0 0.0
2016-Apr-20 14:32N 49°28' E 000°09'0 0.0
2016-Apr-20 13:32N 49°28' E 000°09'0 0.0
2016-Apr-20 12:32N 49°28' E 000°09'0 0.0
2016-Apr-20 11:32N 49°28' E 000°09'0 0.0
2016-Apr-20 10:32N 49°28' E 000°09'  

Dump ship's entire track history